sensor_id;sensor_type;location;lat;lon;timestamp;P1;durP1;ratioP1;P2;durP2;ratioP2
66856;SDS011;53766;50.280;19.160;2022-07-05T00:01:08;3.00;;;2.20;;
66856;SDS011;53766;50.280;19.160;2022-07-05T00:03:36;4.03;;;2.15;;
66856;SDS011;53766;50.280;19.160;2022-07-05T00:06:03;3.30;;;2.40;;
66856;SDS011;53766;50.280;19.160;2022-07-05T00:08:31;4.18;;;2.33;;
66856;SDS011;53766;50.280;19.160;2022-07-05T00:10:59;5.15;;;2.58;;
66856;SDS011;53766;50.280;19.160;2022-07-05T00:13:27;6.15;;;2.40;;
66856;SDS011;53766;50.280;19.160;2022-07-05T00:15:54;3.33;;;2.20;;
66856;SDS011;53766;50.280;19.160;2022-07-05T00:18:22;4.70;;;2.50;;
66856;SDS011;53766;50.280;19.160;2022-07-05T00:20:49;5.55;;;2.50;;
66856;SDS011;53766;50.280;19.160;2022-07-05T00:23:17;3.65;;;2.50;;
66856;SDS011;53766;50.280;19.160;2022-07-05T00:25:45;3.45;;;2.30;;
66856;SDS011;53766;50.280;19.160;2022-07-05T00:28:12;5.30;;;2.38;;
66856;SDS011;53766;50.280;19.160;2022-07-05T00:30:42;3.05;;;2.20;;
66856;SDS011;53766;50.280;19.160;2022-07-05T00:33:10;3.30;;;2.65;;
66856;SDS011;53766;50.280;19.160;2022-07-05T00:35:37;4.00;;;2.42;;
66856;SDS011;53766;50.280;19.160;2022-07-05T00:38:05;2.78;;;2.30;;
66856;SDS011;53766;50.280;19.160;2022-07-05T00:40:32;6.15;;;2.80;;
66856;SDS011;53766;50.280;19.160;2022-07-05T00:43:00;4.47;;;2.28;;
66856;SDS011;53766;50.280;19.160;2022-07-05T00:45:27;4.35;;;2.58;;
66856;SDS011;53766;50.280;19.160;2022-07-05T00:47:55;3.67;;;2.20;;
66856;SDS011;53766;50.280;19.160;2022-07-05T00:50:23;4.40;;;2.70;;
66856;SDS011;53766;50.280;19.160;2022-07-05T00:52:52;3.25;;;1.98;;
66856;SDS011;53766;50.280;19.160;2022-07-05T00:55:21;6.20;;;2.70;;
66856;SDS011;53766;50.280;19.160;2022-07-05T00:57:49;6.93;;;2.97;;
66856;SDS011;53766;50.280;19.160;2022-07-05T01:00:17;2.95;;;2.35;;
66856;SDS011;53766;50.280;19.160;2022-07-05T01:02:46;4.57;;;2.38;;
66856;SDS011;53766;50.280;19.160;2022-07-05T01:05:13;7.03;;;2.70;;
66856;SDS011;53766;50.280;19.160;2022-07-05T01:07:41;6.57;;;2.80;;
66856;SDS011;53766;50.280;19.160;2022-07-05T01:10:09;9.00;;;2.90;;
66856;SDS011;53766;50.280;19.160;2022-07-05T01:12:38;7.22;;;3.08;;
66856;SDS011;53766;50.280;19.160;2022-07-05T01:15:06;5.90;;;2.90;;
66856;SDS011;53766;50.280;19.160;2022-07-05T01:17:36;5.50;;;2.90;;
66856;SDS011;53766;50.280;19.160;2022-07-05T01:20:04;8.35;;;3.13;;
66856;SDS011;53766;50.280;19.160;2022-07-05T01:25:21;7.32;;;3.17;;
66856;SDS011;53766;50.280;19.160;2022-07-05T01:27:51;6.78;;;3.63;;
66856;SDS011;53766;50.280;19.160;2022-07-05T01:30:20;7.13;;;3.25;;
66856;SDS011;53766;50.280;19.160;2022-07-05T01:32:48;9.90;;;3.40;;
66856;SDS011;53766;50.280;19.160;2022-07-05T01:35:16;7.25;;;3.97;;
66856;SDS011;53766;50.280;19.160;2022-07-05T01:37:47;9.55;;;4.10;;
66856;SDS011;53766;50.280;19.160;2022-07-05T01:40:16;10.00;;;3.88;;
66856;SDS011;53766;50.280;19.160;2022-07-05T01:42:46;7.50;;;3.67;;
66856;SDS011;53766;50.280;19.160;2022-07-05T01:45:14;12.35;;;3.90;;
66856;SDS011;53766;50.280;19.160;2022-07-05T01:48:01;10.20;;;3.95;;
66856;SDS011;53766;50.280;19.160;2022-07-05T01:50:31;6.30;;;3.53;;
66856;SDS011;53766;50.280;19.160;2022-07-05T01:53:03;7.07;;;3.93;;
66856;SDS011;53766;50.280;19.160;2022-07-05T01:55:32;6.75;;;3.88;;
66856;SDS011;53766;50.280;19.160;2022-07-05T01:58:00;9.27;;;4.13;;
66856;SDS011;53766;50.280;19.160;2022-07-05T02:00:28;7.63;;;3.58;;
66856;SDS011;53766;50.280;19.160;2022-07-05T02:02:56;8.40;;;3.85;;
66856;SDS011;53766;50.280;19.160;2022-07-05T02:05:25;6.18;;;3.53;;
66856;SDS011;53766;50.280;19.160;2022-07-05T02:07:55;7.80;;;4.00;;
66856;SDS011;53766;50.280;19.160;2022-07-05T02:10:22;8.02;;;3.50;;
66856;SDS011;53766;50.280;19.160;2022-07-05T02:12:50;7.28;;;3.90;;
66856;SDS011;53766;50.280;19.160;2022-07-05T02:15:18;8.32;;;3.70;;
66856;SDS011;53766;50.280;19.160;2022-07-05T02:17:45;9.25;;;3.83;;
66856;SDS011;53766;50.280;19.160;2022-07-05T02:20:13;11.02;;;3.88;;
66856;SDS011;53766;50.280;19.160;2022-07-05T02:22:40;7.60;;;3.78;;
66856;SDS011;53766;50.280;19.160;2022-07-05T02:25:09;10.00;;;3.65;;
66856;SDS011;53766;50.280;19.160;2022-07-05T02:27:37;9.43;;;3.72;;
66856;SDS011;53766;50.280;19.160;2022-07-05T02:30:05;9.43;;;3.83;;
66856;SDS011;53766;50.280;19.160;2022-07-05T02:32:33;12.07;;;4.10;;
66856;SDS011;53766;50.280;19.160;2022-07-05T02:35:00;13.73;;;3.72;;
66856;SDS011;53766;50.280;19.160;2022-07-05T02:37:29;6.70;;;3.83;;
66856;SDS011;53766;50.280;19.160;2022-07-05T02:39:57;9.70;;;3.92;;
66856;SDS011;53766;50.280;19.160;2022-07-05T02:42:25;10.10;;;3.75;;
66856;SDS011;53766;50.280;19.160;2022-07-05T02:44:53;7.35;;;3.65;;
66856;SDS011;53766;50.280;19.160;2022-07-05T02:47:20;9.43;;;3.90;;
66856;SDS011;53766;50.280;19.160;2022-07-05T02:49:48;9.82;;;3.83;;
66856;SDS011;53766;50.280;19.160;2022-07-05T02:52:15;9.18;;;4.10;;
66856;SDS011;53766;50.280;19.160;2022-07-05T02:54:43;9.05;;;4.10;;
66856;SDS011;53766;50.280;19.160;2022-07-05T02:57:11;9.70;;;4.40;;
66856;SDS011;53766;50.280;19.160;2022-07-05T02:59:39;10.00;;;4.43;;
66856;SDS011;53766;50.280;19.160;2022-07-05T03:02:06;8.30;;;4.68;;
66856;SDS011;53766;50.280;19.160;2022-07-05T03:04:33;9.38;;;4.72;;
66856;SDS011;53766;50.280;19.160;2022-07-05T03:07:01;12.77;;;5.47;;
66856;SDS011;53766;50.280;19.160;2022-07-05T03:09:29;9.13;;;4.93;;
66856;SDS011;53766;50.280;19.160;2022-07-05T03:11:56;10.07;;;4.55;;
66856;SDS011;53766;50.280;19.160;2022-07-05T03:14:24;13.90;;;4.78;;
66856;SDS011;53766;50.280;19.160;2022-07-05T03:16:52;9.52;;;4.65;;
66856;SDS011;53766;50.280;19.160;2022-07-05T03:19:19;10.07;;;4.40;;
66856;SDS011;53766;50.280;19.160;2022-07-05T03:21:47;8.32;;;4.60;;
66856;SDS011;53766;50.280;19.160;2022-07-05T03:24:14;10.13;;;4.82;;
66856;SDS011;53766;50.280;19.160;2022-07-05T03:26:42;9.02;;;4.72;;
66856;SDS011;53766;50.280;19.160;2022-07-05T03:29:10;11.02;;;4.65;;
66856;SDS011;53766;50.280;19.160;2022-07-05T03:31:37;10.48;;;4.75;;
66856;SDS011;53766;50.280;19.160;2022-07-05T03:34:05;11.57;;;4.63;;
66856;SDS011;53766;50.280;19.160;2022-07-05T03:36:33;10.57;;;4.60;;
66856;SDS011;53766;50.280;19.160;2022-07-05T03:39:01;8.70;;;4.40;;
66856;SDS011;53766;50.280;19.160;2022-07-05T03:41:30;10.13;;;4.43;;
66856;SDS011;53766;50.280;19.160;2022-07-05T03:43:58;9.95;;;4.35;;
66856;SDS011;53766;50.280;19.160;2022-07-05T03:46:25;11.82;;;4.25;;
66856;SDS011;53766;50.280;19.160;2022-07-05T03:48:53;10.02;;;4.40;;
66856;SDS011;53766;50.280;19.160;2022-07-05T03:51:22;6.10;;;4.03;;
66856;SDS011;53766;50.280;19.160;2022-07-05T03:53:49;10.50;;;4.30;;
66856;SDS011;53766;50.280;19.160;2022-07-05T03:56:17;9.05;;;4.47;;
66856;SDS011;53766;50.280;19.160;2022-07-05T03:58:47;7.50;;;4.15;;
66856;SDS011;53766;50.280;19.160;2022-07-05T04:01:15;9.63;;;4.50;;
66856;SDS011;53766;50.280;19.160;2022-07-05T04:03:43;8.75;;;4.38;;
66856;SDS011;53766;50.280;19.160;2022-07-05T04:06:11;10.10;;;4.30;;
66856;SDS011;53766;50.280;19.160;2022-07-05T04:08:39;7.22;;;4.50;;
66856;SDS011;53766;50.280;19.160;2022-07-05T04:11:07;8.80;;;4.20;;
66856;SDS011;53766;50.280;19.160;2022-07-05T04:13:36;6.63;;;3.70;;
66856;SDS011;53766;50.280;19.160;2022-07-05T04:16:04;6.90;;;4.20;;
66856;SDS011;53766;50.280;19.160;2022-07-05T04:18:33;9.02;;;4.03;;
66856;SDS011;53766;50.280;19.160;2022-07-05T04:21:04;7.07;;;3.92;;
66856;SDS011;53766;50.280;19.160;2022-07-05T04:23:32;8.07;;;4.07;;
66856;SDS011;53766;50.280;19.160;2022-07-05T04:26:00;8.95;;;4.15;;
66856;SDS011;53766;50.280;19.160;2022-07-05T04:28:28;5.88;;;3.60;;
66856;SDS011;53766;50.280;19.160;2022-07-05T04:30:58;6.15;;;3.50;;
66856;SDS011;53766;50.280;19.160;2022-07-05T04:33:26;7.55;;;3.78;;
66856;SDS011;53766;50.280;19.160;2022-07-05T04:35:54;7.00;;;3.75;;
66856;SDS011;53766;50.280;19.160;2022-07-05T04:38:21;6.05;;;3.58;;
66856;SDS011;53766;50.280;19.160;2022-07-05T04:40:49;10.38;;;3.63;;
66856;SDS011;53766;50.280;19.160;2022-07-05T04:43:17;5.55;;;3.42;;
66856;SDS011;53766;50.280;19.160;2022-07-05T04:45:44;5.63;;;3.40;;
66856;SDS011;53766;50.280;19.160;2022-07-05T04:48:12;6.38;;;3.70;;
66856;SDS011;53766;50.280;19.160;2022-07-05T04:50:40;7.47;;;3.50;;
66856;SDS011;53766;50.280;19.160;2022-07-05T04:53:07;8.40;;;3.33;;
66856;SDS011;53766;50.280;19.160;2022-07-05T04:55:34;7.70;;;3.40;;
66856;SDS011;53766;50.280;19.160;2022-07-05T04:58:03;6.28;;;3.70;;
66856;SDS011;53766;50.280;19.160;2022-07-05T05:00:30;6.95;;;3.78;;
66856;SDS011;53766;50.280;19.160;2022-07-05T05:02:58;10.90;;;3.50;;
66856;SDS011;53766;50.280;19.160;2022-07-05T05:05:25;12.57;;;3.13;;
66856;SDS011;53766;50.280;19.160;2022-07-05T05:07:53;5.50;;;3.63;;
66856;SDS011;53766;50.280;19.160;2022-07-05T05:10:20;6.22;;;3.40;;
66856;SDS011;53766;50.280;19.160;2022-07-05T05:12:48;7.53;;;3.33;;
66856;SDS011;53766;50.280;19.160;2022-07-05T05:15:16;8.88;;;3.88;;
66856;SDS011;53766;50.280;19.160;2022-07-05T05:17:43;6.50;;;3.58;;
66856;SDS011;53766;50.280;19.160;2022-07-05T05:20:15;7.30;;;3.72;;
66856;SDS011;53766;50.280;19.160;2022-07-05T05:22:45;5.93;;;3.42;;
66856;SDS011;53766;50.280;19.160;2022-07-05T05:25:13;8.20;;;4.10;;
66856;SDS011;53766;50.280;19.160;2022-07-05T05:27:42;7.05;;;4.28;;
66856;SDS011;53766;50.280;19.160;2022-07-05T05:30:18;12.90;;;4.75;;
66856;SDS011;53766;50.280;19.160;2022-07-05T05:32:46;11.77;;;4.30;;
66856;SDS011;53766;50.280;19.160;2022-07-05T05:35:14;12.10;;;4.80;;
66856;SDS011;53766;50.280;19.160;2022-07-05T05:37:51;7.90;;;4.43;;
66856;SDS011;53766;50.280;19.160;2022-07-05T05:40:21;8.25;;;4.45;;
66856;SDS011;53766;50.280;19.160;2022-07-05T05:42:50;6.78;;;3.80;;
66856;SDS011;53766;50.280;19.160;2022-07-05T05:45:19;7.95;;;3.65;;
66856;SDS011;53766;50.280;19.160;2022-07-05T05:47:51;13.65;;;4.28;;
66856;SDS011;53766;50.280;19.160;2022-07-05T05:50:22;8.00;;;3.80;;
66856;SDS011;53766;50.280;19.160;2022-07-05T05:52:50;9.70;;;3.70;;
66856;SDS011;53766;50.280;19.160;2022-07-05T05:55:19;9.70;;;4.20;;
66856;SDS011;53766;50.280;19.160;2022-07-05T05:57:47;7.10;;;3.90;;
66856;SDS011;53766;50.280;19.160;2022-07-05T06:00:15;8.27;;;3.55;;
66856;SDS011;53766;50.280;19.160;2022-07-05T06:02:44;8.23;;;3.72;;
66856;SDS011;53766;50.280;19.160;2022-07-05T06:05:13;8.13;;;3.90;;
66856;SDS011;53766;50.280;19.160;2022-07-05T06:07:44;8.27;;;4.47;;
66856;SDS011;53766;50.280;19.160;2022-07-05T06:10:19;8.90;;;4.13;;
66856;SDS011;53766;50.280;19.160;2022-07-05T06:12:52;8.00;;;3.75;;
66856;SDS011;53766;50.280;19.160;2022-07-05T06:15:20;7.40;;;4.20;;
66856;SDS011;53766;50.280;19.160;2022-07-05T06:17:48;7.05;;;4.30;;
66856;SDS011;53766;50.280;19.160;2022-07-05T06:20:17;7.85;;;4.30;;
66856;SDS011;53766;50.280;19.160;2022-07-05T06:22:46;10.50;;;4.28;;
66856;SDS011;53766;50.280;19.160;2022-07-05T06:25:15;6.95;;;4.50;;
66856;SDS011;53766;50.280;19.160;2022-07-05T06:27:59;7.80;;;4.38;;
66856;SDS011;53766;50.280;19.160;2022-07-05T06:30:29;6.97;;;3.97;;
66856;SDS011;53766;50.280;19.160;2022-07-05T06:32:58;9.63;;;4.38;;
66856;SDS011;53766;50.280;19.160;2022-07-05T06:35:26;6.03;;;3.63;;
66856;SDS011;53766;50.280;19.160;2022-07-05T06:37:55;8.73;;;4.30;;
66856;SDS011;53766;50.280;19.160;2022-07-05T06:40:39;7.63;;;4.25;;
66856;SDS011;53766;50.280;19.160;2022-07-05T06:43:12;9.43;;;4.35;;
66856;SDS011;53766;50.280;19.160;2022-07-05T06:45:40;10.40;;;4.68;;
66856;SDS011;53766;50.280;19.160;2022-07-05T06:48:10;11.30;;;5.03;;
66856;SDS011;53766;50.280;19.160;2022-07-05T06:50:39;11.80;;;4.93;;
66856;SDS011;53766;50.280;19.160;2022-07-05T06:53:08;14.23;;;5.35;;
66856;SDS011;53766;50.280;19.160;2022-07-05T06:55:36;8.63;;;4.50;;
66856;SDS011;53766;50.280;19.160;2022-07-05T06:58:06;10.45;;;4.50;;
66856;SDS011;53766;50.280;19.160;2022-07-05T07:00:39;7.97;;;4.50;;
66856;SDS011;53766;50.280;19.160;2022-07-05T07:03:27;8.43;;;4.22;;
66856;SDS011;53766;50.280;19.160;2022-07-05T07:06:15;6.97;;;4.43;;
66856;SDS011;53766;50.280;19.160;2022-07-05T07:08:44;11.43;;;4.53;;
66856;SDS011;53766;50.280;19.160;2022-07-05T07:11:29;8.20;;;4.55;;
66856;SDS011;53766;50.280;19.160;2022-07-05T07:13:57;7.68;;;4.32;;
66856;SDS011;53766;50.280;19.160;2022-07-05T07:16:24;10.00;;;4.60;;
66856;SDS011;53766;50.280;19.160;2022-07-05T07:18:52;9.32;;;4.20;;
66856;SDS011;53766;50.280;19.160;2022-07-05T07:21:37;6.65;;;4.20;;
66856;SDS011;53766;50.280;19.160;2022-07-05T07:24:05;7.38;;;4.10;;
66856;SDS011;53766;50.280;19.160;2022-07-05T07:26:33;7.68;;;4.63;;
66856;SDS011;53766;50.280;19.160;2022-07-05T07:29:22;6.88;;;4.45;;
66856;SDS011;53766;50.280;19.160;2022-07-05T07:31:50;8.52;;;4.90;;
66856;SDS011;53766;50.280;19.160;2022-07-05T07:34:18;6.85;;;4.50;;
66856;SDS011;53766;50.280;19.160;2022-07-05T07:36:46;8.73;;;4.95;;
66856;SDS011;53766;50.280;19.160;2022-07-05T07:39:14;8.63;;;3.88;;
66856;SDS011;53766;50.280;19.160;2022-07-05T07:41:43;7.53;;;4.38;;
66856;SDS011;53766;50.280;19.160;2022-07-05T07:44:10;7.22;;;4.75;;
66856;SDS011;53766;50.280;19.160;2022-07-05T07:46:38;7.80;;;4.25;;
66856;SDS011;53766;50.280;19.160;2022-07-05T07:49:07;6.68;;;3.80;;
66856;SDS011;53766;50.280;19.160;2022-07-05T07:51:35;9.98;;;4.47;;
66856;SDS011;53766;50.280;19.160;2022-07-05T07:54:04;9.20;;;4.10;;
66856;SDS011;53766;50.280;19.160;2022-07-05T07:56:32;6.78;;;3.58;;
66856;SDS011;53766;50.280;19.160;2022-07-05T07:59:00;7.20;;;3.70;;
66856;SDS011;53766;50.280;19.160;2022-07-05T08:01:27;7.13;;;4.32;;
66856;SDS011;53766;50.280;19.160;2022-07-05T08:03:55;7.82;;;3.97;;
66856;SDS011;53766;50.280;19.160;2022-07-05T08:06:23;6.85;;;4.13;;
66856;SDS011;53766;50.280;19.160;2022-07-05T08:08:50;7.82;;;4.40;;
66856;SDS011;53766;50.280;19.160;2022-07-05T08:11:18;6.07;;;4.38;;
66856;SDS011;53766;50.280;19.160;2022-07-05T08:13:45;9.23;;;4.60;;
66856;SDS011;53766;50.280;19.160;2022-07-05T08:16:14;9.70;;;4.05;;
66856;SDS011;53766;50.280;19.160;2022-07-05T08:18:43;6.72;;;3.92;;
66856;SDS011;53766;50.280;19.160;2022-07-05T08:21:30;6.38;;;4.00;;
66856;SDS011;53766;50.280;19.160;2022-07-05T08:24:08;6.93;;;3.72;;
66856;SDS011;53766;50.280;19.160;2022-07-05T08:26:36;7.82;;;3.63;;
66856;SDS011;53766;50.280;19.160;2022-07-05T08:29:06;9.02;;;4.20;;
66856;SDS011;53766;50.280;19.160;2022-07-05T08:31:37;7.15;;;3.90;;
66856;SDS011;53766;50.280;19.160;2022-07-05T08:34:07;7.90;;;3.55;;
66856;SDS011;53766;50.280;19.160;2022-07-05T08:36:35;5.78;;;3.50;;
66856;SDS011;53766;50.280;19.160;2022-07-05T08:39:05;10.23;;;4.07;;
66856;SDS011;53766;50.280;19.160;2022-07-05T08:41:33;8.50;;;4.22;;
66856;SDS011;53766;50.280;19.160;2022-07-05T08:44:03;8.40;;;4.10;;
66856;SDS011;53766;50.280;19.160;2022-07-05T08:46:32;7.05;;;3.83;;
66856;SDS011;53766;50.280;19.160;2022-07-05T08:49:01;6.35;;;3.55;;
66856;SDS011;53766;50.280;19.160;2022-07-05T08:51:39;8.43;;;3.53;;
66856;SDS011;53766;50.280;19.160;2022-07-05T08:54:09;7.20;;;3.28;;
66856;SDS011;53766;50.280;19.160;2022-07-05T08:56:41;6.75;;;3.38;;
66856;SDS011;53766;50.280;19.160;2022-07-05T08:59:30;7.93;;;3.45;;
66856;SDS011;53766;50.280;19.160;2022-07-05T09:01:57;8.18;;;3.40;;
66856;SDS011;53766;50.280;19.160;2022-07-05T09:04:29;6.00;;;3.20;;
66856;SDS011;53766;50.280;19.160;2022-07-05T09:07:02;9.90;;;3.95;;
66856;SDS011;53766;50.280;19.160;2022-07-05T09:09:37;6.72;;;3.67;;
66856;SDS011;53766;50.280;19.160;2022-07-05T09:12:15;7.35;;;3.60;;
66856;SDS011;53766;50.280;19.160;2022-07-05T09:14:49;6.47;;;3.15;;
66856;SDS011;53766;50.280;19.160;2022-07-05T09:17:17;5.93;;;3.35;;
66856;SDS011;53766;50.280;19.160;2022-07-05T09:20:04;6.47;;;3.15;;
66856;SDS011;53766;50.280;19.160;2022-07-05T09:23:10;7.35;;;3.08;;
66856;SDS011;53766;50.280;19.160;2022-07-05T09:25:31;5.43;;;3.35;;
66856;SDS011;53766;50.280;19.160;2022-07-05T09:30:29;6.57;;;3.45;;
66856;SDS011;53766;50.280;19.160;2022-07-05T09:33:11;5.20;;;3.17;;
66856;SDS011;53766;50.280;19.160;2022-07-05T09:35:51;7.25;;;3.13;;
66856;SDS011;53766;50.280;19.160;2022-07-05T09:38:27;5.20;;;2.97;;
66856;SDS011;53766;50.280;19.160;2022-07-05T09:40:57;4.28;;;2.97;;
66856;SDS011;53766;50.280;19.160;2022-07-05T09:43:28;7.32;;;3.35;;
66856;SDS011;53766;50.280;19.160;2022-07-05T09:45:57;7.50;;;2.97;;
66856;SDS011;53766;50.280;19.160;2022-07-05T09:48:27;4.55;;;3.08;;
66856;SDS011;53766;50.280;19.160;2022-07-05T09:51:08;4.18;;;2.80;;
66856;SDS011;53766;50.280;19.160;2022-07-05T09:53:57;4.47;;;3.00;;
66856;SDS011;53766;50.280;19.160;2022-07-05T09:56:53;4.18;;;2.55;;
66856;SDS011;53766;50.280;19.160;2022-07-05T09:59:19;6.03;;;3.03;;
66856;SDS011;53766;50.280;19.160;2022-07-05T10:01:51;9.90;;;3.22;;
66856;SDS011;53766;50.280;19.160;2022-07-05T10:04:19;4.75;;;2.90;;
66856;SDS011;53766;50.280;19.160;2022-07-05T10:06:47;7.50;;;2.92;;
66856;SDS011;53766;50.280;19.160;2022-07-05T10:09:17;6.25;;;2.80;;
66856;SDS011;53766;50.280;19.160;2022-07-05T10:11:45;5.63;;;2.70;;
66856;SDS011;53766;50.280;19.160;2022-07-05T10:14:17;6.32;;;3.03;;
66856;SDS011;53766;50.280;19.160;2022-07-05T10:19:43;7.30;;;3.17;;
66856;SDS011;53766;50.280;19.160;2022-07-05T10:22:15;4.28;;;3.15;;
66856;SDS011;53766;50.280;19.160;2022-07-05T10:24:46;5.18;;;3.00;;
66856;SDS011;53766;50.280;19.160;2022-07-05T10:27:16;6.68;;;2.90;;
66856;SDS011;53766;50.280;19.160;2022-07-05T10:29:44;4.60;;;3.10;;
66856;SDS011;53766;50.280;19.160;2022-07-05T10:32:12;5.60;;;2.65;;
66856;SDS011;53766;50.280;19.160;2022-07-05T10:34:42;5.68;;;2.90;;
66856;SDS011;53766;50.280;19.160;2022-07-05T10:37:27;5.40;;;2.83;;
66856;SDS011;53766;50.280;19.160;2022-07-05T10:39:57;6.38;;;3.00;;
66856;SDS011;53766;50.280;19.160;2022-07-05T10:42:28;5.43;;;3.00;;
66856;SDS011;53766;50.280;19.160;2022-07-05T10:45:00;4.72;;;2.80;;
66856;SDS011;53766;50.280;19.160;2022-07-05T10:47:29;4.78;;;2.60;;
66856;SDS011;53766;50.280;19.160;2022-07-05T10:50:01;4.32;;;2.72;;
66856;SDS011;53766;50.280;19.160;2022-07-05T10:52:31;3.72;;;2.63;;
66856;SDS011;53766;50.280;19.160;2022-07-05T11:03:35;7.43;;;2.78;;
66856;SDS011;53766;50.280;19.160;2022-07-05T11:06:05;4.93;;;2.65;;
66856;SDS011;53766;50.280;19.160;2022-07-05T11:11:25;3.80;;;2.60;;
66856;SDS011;53766;50.280;19.160;2022-07-05T11:13:57;4.13;;;2.25;;
66856;SDS011;53766;50.280;19.160;2022-07-05T11:16:30;3.47;;;2.50;;
66856;SDS011;53766;50.280;19.160;2022-07-05T11:21:31;8.10;;;2.63;;
66856;SDS011;53766;50.280;19.160;2022-07-05T11:24:19;4.15;;;2.30;;
66856;SDS011;53766;50.280;19.160;2022-07-05T11:26:51;4.70;;;2.10;;
66856;SDS011;53766;50.280;19.160;2022-07-05T11:34:52;3.00;;;2.25;;
66856;SDS011;53766;50.280;19.160;2022-07-05T11:37:25;3.17;;;2.20;;
66856;SDS011;53766;50.280;19.160;2022-07-05T11:42:49;4.03;;;2.10;;
66856;SDS011;53766;50.280;19.160;2022-07-05T11:45:18;3.40;;;2.30;;
66856;SDS011;53766;50.280;19.160;2022-07-05T11:47:45;2.58;;;1.83;;
66856;SDS011;53766;50.280;19.160;2022-07-05T11:50:13;2.90;;;2.10;;
66856;SDS011;53766;50.280;19.160;2022-07-05T11:52:41;2.50;;;2.05;;
66856;SDS011;53766;50.280;19.160;2022-07-05T11:55:09;6.25;;;2.15;;
66856;SDS011;53766;50.280;19.160;2022-07-05T11:57:47;2.63;;;2.03;;
66856;SDS011;53766;50.280;19.160;2022-07-05T12:02:54;3.72;;;2.33;;
66856;SDS011;53766;50.280;19.160;2022-07-05T12:05:22;5.32;;;1.98;;
66856;SDS011;53766;50.280;19.160;2022-07-05T12:07:51;3.35;;;2.03;;
66856;SDS011;53766;50.280;19.160;2022-07-05T12:10:19;3.28;;;2.00;;
66856;SDS011;53766;50.280;19.160;2022-07-05T12:13:25;2.50;;;1.92;;
66856;SDS011;53766;50.280;19.160;2022-07-05T12:16:00;3.70;;;2.20;;
66856;SDS011;53766;50.280;19.160;2022-07-05T12:18:28;3.85;;;2.45;;
66856;SDS011;53766;50.280;19.160;2022-07-05T12:20:57;3.47;;;2.50;;
66856;SDS011;53766;50.280;19.160;2022-07-05T12:23:28;4.53;;;2.00;;
66856;SDS011;53766;50.280;19.160;2022-07-05T12:25:58;3.85;;;2.30;;
66856;SDS011;53766;50.280;19.160;2022-07-05T12:28:27;5.47;;;2.60;;
66856;SDS011;53766;50.280;19.160;2022-07-05T12:30:54;4.32;;;2.63;;
66856;SDS011;53766;50.280;19.160;2022-07-05T12:33:23;4.03;;;2.25;;
66856;SDS011;53766;50.280;19.160;2022-07-05T12:35:51;4.38;;;2.45;;
66856;SDS011;53766;50.280;19.160;2022-07-05T12:38:19;5.07;;;2.17;;
66856;SDS011;53766;50.280;19.160;2022-07-05T12:40:48;3.30;;;2.10;;
66856;SDS011;53766;50.280;19.160;2022-07-05T12:43:24;3.65;;;2.17;;
66856;SDS011;53766;50.280;19.160;2022-07-05T12:48:32;5.65;;;2.28;;
66856;SDS011;53766;50.280;19.160;2022-07-05T12:51:02;5.93;;;2.40;;
66856;SDS011;53766;50.280;19.160;2022-07-05T12:53:48;9.23;;;2.67;;
66856;SDS011;53766;50.280;19.160;2022-07-05T12:56:36;8.30;;;3.15;;
66856;SDS011;53766;50.280;19.160;2022-07-05T13:00:02;6.88;;;2.30;;
66856;SDS011;53766;50.280;19.160;2022-07-05T13:02:36;6.57;;;2.60;;
66856;SDS011;53766;50.280;19.160;2022-07-05T13:05:18;7.80;;;2.83;;
66856;SDS011;53766;50.280;19.160;2022-07-05T13:07:50;8.95;;;2.85;;
66856;SDS011;53766;50.280;19.160;2022-07-05T13:10:23;7.55;;;2.60;;
66856;SDS011;53766;50.280;19.160;2022-07-05T13:12:52;6.13;;;2.38;;
66856;SDS011;53766;50.280;19.160;2022-07-05T13:15:20;8.45;;;2.10;;
66856;SDS011;53766;50.280;19.160;2022-07-05T13:17:47;5.35;;;2.17;;
66856;SDS011;53766;50.280;19.160;2022-07-05T13:20:16;5.95;;;1.88;;
66856;SDS011;53766;50.280;19.160;2022-07-05T13:22:46;6.68;;;2.30;;
66856;SDS011;53766;50.280;19.160;2022-07-05T13:25:14;7.60;;;2.30;;
66856;SDS011;53766;50.280;19.160;2022-07-05T13:27:42;6.38;;;2.33;;
66856;SDS011;53766;50.280;19.160;2022-07-05T13:30:10;8.57;;;2.67;;
66856;SDS011;53766;50.280;19.160;2022-07-05T13:32:38;6.55;;;2.20;;
66856;SDS011;53766;50.280;19.160;2022-07-05T13:35:06;7.13;;;2.72;;
66856;SDS011;53766;50.280;19.160;2022-07-05T13:37:34;8.13;;;2.42;;
66856;SDS011;53766;50.280;19.160;2022-07-05T13:40:02;9.32;;;2.63;;
66856;SDS011;53766;50.280;19.160;2022-07-05T13:42:30;4.13;;;2.00;;
66856;SDS011;53766;50.280;19.160;2022-07-05T13:44:58;10.27;;;2.55;;
66856;SDS011;53766;50.280;19.160;2022-07-05T13:47:26;7.93;;;2.22;;
66856;SDS011;53766;50.280;19.160;2022-07-05T13:49:53;7.22;;;2.40;;
66856;SDS011;53766;50.280;19.160;2022-07-05T13:52:41;4.30;;;1.92;;
66856;SDS011;53766;50.280;19.160;2022-07-05T13:55:08;10.52;;;2.30;;
66856;SDS011;53766;50.280;19.160;2022-07-05T13:57:36;7.80;;;2.33;;
66856;SDS011;53766;50.280;19.160;2022-07-05T14:00:04;6.57;;;2.55;;
66856;SDS011;53766;50.280;19.160;2022-07-05T14:02:33;8.30;;;2.33;;
66856;SDS011;53766;50.280;19.160;2022-07-05T14:05:01;10.52;;;2.70;;
66856;SDS011;53766;50.280;19.160;2022-07-05T14:07:28;9.95;;;2.70;;
66856;SDS011;53766;50.280;19.160;2022-07-05T14:09:56;6.82;;;2.60;;
66856;SDS011;53766;50.280;19.160;2022-07-05T14:12:24;9.82;;;2.50;;
66856;SDS011;53766;50.280;19.160;2022-07-05T14:14:51;10.32;;;2.92;;
66856;SDS011;53766;50.280;19.160;2022-07-05T14:17:19;10.25;;;2.78;;
66856;SDS011;53766;50.280;19.160;2022-07-05T14:19:46;6.82;;;2.50;;
66856;SDS011;53766;50.280;19.160;2022-07-05T14:22:14;8.20;;;3.03;;
66856;SDS011;53766;50.280;19.160;2022-07-05T14:24:42;8.52;;;2.60;;
66856;SDS011;53766;50.280;19.160;2022-07-05T14:27:10;7.80;;;3.20;;
66856;SDS011;53766;50.280;19.160;2022-07-05T14:29:37;9.63;;;3.35;;
66856;SDS011;53766;50.280;19.160;2022-07-05T14:32:05;12.88;;;3.47;;
66856;SDS011;53766;50.280;19.160;2022-07-05T14:34:33;10.27;;;3.22;;
66856;SDS011;53766;50.280;19.160;2022-07-05T14:37:01;12.85;;;3.03;;
66856;SDS011;53766;50.280;19.160;2022-07-05T14:39:29;10.68;;;3.45;;
66856;SDS011;53766;50.280;19.160;2022-07-05T14:41:56;11.43;;;3.20;;
66856;SDS011;53766;50.280;19.160;2022-07-05T14:44:25;29.05;;;3.50;;
66856;SDS011;53766;50.280;19.160;2022-07-05T14:46:52;17.92;;;3.72;;
66856;SDS011;53766;50.280;19.160;2022-07-05T14:49:20;14.57;;;3.20;;
66856;SDS011;53766;50.280;19.160;2022-07-05T14:51:48;13.02;;;3.47;;
66856;SDS011;53766;50.280;19.160;2022-07-05T14:54:15;12.38;;;3.50;;
66856;SDS011;53766;50.280;19.160;2022-07-05T14:56:42;13.50;;;3.30;;
66856;SDS011;53766;50.280;19.160;2022-07-05T14:59:10;20.58;;;3.83;;
66856;SDS011;53766;50.280;19.160;2022-07-05T15:01:38;24.30;;;3.95;;
66856;SDS011;53766;50.280;19.160;2022-07-05T15:04:05;15.23;;;4.25;;
66856;SDS011;53766;50.280;19.160;2022-07-05T15:06:33;17.58;;;4.70;;
66856;SDS011;53766;50.280;19.160;2022-07-05T15:09:01;11.98;;;3.97;;
66856;SDS011;53766;50.280;19.160;2022-07-05T15:11:28;12.80;;;4.10;;
66856;SDS011;53766;50.280;19.160;2022-07-05T15:13:57;14.05;;;4.30;;
66856;SDS011;53766;50.280;19.160;2022-07-05T15:16:24;20.08;;;5.03;;
66856;SDS011;53766;50.280;19.160;2022-07-05T15:18:52;17.00;;;4.60;;
66856;SDS011;53766;50.280;19.160;2022-07-05T15:21:20;13.30;;;4.70;;
66856;SDS011;53766;50.280;19.160;2022-07-05T15:23:48;13.38;;;4.80;;